Time;durP1;ratioP1;P1;durP2;ratioP2;P2;SDS_P1;SDS_P2;PMS_P1;PMS_P2;Temp;Humidity;BMP_temperature;BMP_pressure;BME280_temperature;BME280_humidity;BME280_pressure;Samples;Min_cycle;Max_cycle;Signal;HPM_P1;HPM_P2
2022/10/19 00:01:21;;;;;;;9.35;1.85;;;;;;;12.30;100.00;100901.00;5040402;28;20044;-91
2022/10/19 00:03:54;;;;;;;9.45;1.80;;;;;;;12.27;100.00;100915.38;5022277;28;20048;-92
2022/10/19 00:06:26;;;;;;;6.13;1.58;;;;;;;12.30;100.00;100916.88;5045011;28;20048;-93
2022/10/19 00:08:59;;;;;;;11.07;1.85;;;;;;;12.32;100.00;100910.50;5036684;28;20036;-92
2022/10/19 00:11:31;;;;;;;10.15;1.60;;;;;;;12.27;100.00;100894.19;5042896;28;20051;-91
2022/10/19 00:14:01;;;;;;;13.32;1.55;;;;;;;12.33;100.00;100887.44;5054664;28;20039;-92
2022/10/19 00:16:36;;;;;;;9.85;1.42;;;;;;;12.34;100.00;100889.13;5058513;28;20654;-90
2022/10/19 00:19:11;;;;;;;5.82;1.30;;;;;;;12.27;100.00;100894.19;5023240;28;20032;-91
2022/10/19 00:21:41;;;;;;;7.47;1.45;;;;;;;12.31;100.00;100900.84;5042098;28;20038;-94
2022/10/19 00:24:13;;;;;;;10.45;2.13;;;;;;;12.32;100.00;100881.34;5015444;28;20040;-95
2022/10/19 00:26:46;;;;;;;7.28;1.73;;;;;;;12.28;100.00;100867.53;5037653;28;20046;-91
2022/10/19 00:29:17;;;;;;;10.48;1.85;;;;;;;12.35;100.00;100878.38;5030156;28;20033;-92
2022/10/19 00:31:48;;;;;;;6.65;1.50;;;;;;;12.31;100.00;100879.63;5036126;28;20473;-94
2022/10/19 00:34:17;;;;;;;8.13;1.55;;;;;;;12.28;100.00;100880.78;5024546;28;20032;-92
2022/10/19 00:36:45;;;;;;;13.50;2.17;;;;;;;12.30;100.00;100885.94;5036813;28;20370;-92
2022/10/19 00:39:15;;;;;;;8.52;1.50;;;;;;;12.28;100.00;100880.78;5036366;28;20031;-92
2022/10/19 00:41:46;;;;;;;8.57;1.90;;;;;;;12.31;100.00;100882.28;5028477;28;20037;-93
2022/10/19 00:44:20;;;;;;;10.20;1.98;;;;;;;12.27;100.00;100884.41;5038337;28;20033;-93
2022/10/19 00:46:48;;;;;;;16.45;2.15;;;;;;;12.22;100.00;100868.09;5038506;28;20484;-93
2022/10/19 00:49:26;;;;;;;10.45;1.90;;;;;;;12.27;100.00;100871.16;5027617;28;20028;-92
2022/10/19 00:52:09;;;;;;;10.95;1.83;;;;;;;12.28;100.00;100870.19;5035500;28;20043;-92
2022/10/19 00:54:41;;;;;;;8.90;1.60;;;;;;;12.27;100.00;100865.88;5045260;28;20554;-91
2022/10/19 00:57:12;;;;;;;11.30;2.90;;;;;;;12.23;100.00;100856.50;5050959;28;20029;-94
2022/10/19 00:59:44;;;;;;;12.85;1.75;;;;;;;12.22;100.00;100867.25;5068651;28;20033;-95
2022/10/19 01:02:26;;;;;;;10.80;1.50;;;;;;;12.26;100.00;100856.22;5033036;28;20032;-93
2022/10/19 01:05:33;;;;;;;10.25;1.73;;;;;;;12.25;100.00;100851.06;5049769;28;20043;-94
2022/10/19 01:08:18;;;;;;;15.98;2.28;;;;;;;12.25;100.00;100848.41;5067580;28;20483;-95
2022/10/19 01:10:56;;;;;;;7.22;1.55;;;;;;;12.24;100.00;100842.31;5033741;28;20049;-95
2022/10/19 01:14:19;;;;;;;11.00;1.73;;;;;;;12.27;100.00;100827.91;5028631;28;20081;-92
2022/10/19 01:17:05;;;;;;;13.95;1.92;;;;;;;12.26;100.00;100832.38;5024621;28;20066;-94
2022/10/19 01:19:53;;;;;;;12.73;1.92;;;;;;;12.23;100.00;100830.00;5033323;28;20044;-93
2022/10/19 01:22:23;;;;;;;6.72;1.70;;;;;;;12.25;100.00;100837.81;5041406;28;20037;-93
2022/10/19 01:25:29;;;;;;;9.20;2.45;;;;;;;12.25;100.00;100830.72;5036395;28;20037;-91
2022/10/19 01:28:28;;;;;;;7.47;2.08;;;;;;;12.26;100.00;100824.41;5023079;28;20040;-90
2022/10/19 01:31:14;;;;;;;9.93;2.92;;;;;;;12.27;100.00;100819.97;5036722;28;20032;-95
2022/10/19 01:34:08;;;;;;;11.63;2.05;;;;;;;12.30;100.00;100813.53;5038554;28;20105;-93
2022/10/19 01:37:19;;;;;;;6.95;1.95;;;;;;;12.28;100.00;100818.97;5030160;28;20036;-94
2022/10/19 01:40:27;;;;;;;15.32;3.45;;;;;;;12.27;100.00;100809.34;5056149;28;20028;-94
2022/10/19 01:43:24;;;;;;;10.32;2.03;;;;;;;12.27;100.00;100802.25;5035942;28;20139;-89
2022/10/19 01:46:15;;;;;;;9.18;2.20;;;;;;;12.30;100.00;100802.91;5063718;28;20249;-93
2022/10/19 01:48:58;;;;;;;14.57;2.72;;;;;;;12.31;100.00;100792.16;5042045;28;20033;-94
2022/10/19 01:51:34;;;;;;;7.60;2.10;;;;;;;12.36;100.00;100786.47;5034895;28;20028;-91
2022/10/19 01:54:13;;;;;;;9.77;2.40;;;;;;;12.32;100.00;100785.06;5023434;28;20111;-96
2022/10/19 01:56:46;;;;;;;11.85;3.13;;;;;;;12.34;100.00;100791.88;5049909;28;20028;-91
2022/10/19 01:59:48;;;;;;;13.02;3.00;;;;;;;12.28;100.00;100789.81;5054627;28;20047;-95
2022/10/19 02:02:18;;;;;;;13.40;3.15;;;;;;;12.29;100.00;100783.56;4998597;28;20055;-92
2022/10/19 02:04:49;;;;;;;11.73;2.97;;;;;;;12.31;100.00;100786.06;5038758;28;20029;-93
2022/10/19 02:07:21;;;;;;;15.70;3.30;;;;;;;12.30;100.00;100779.91;5054370;28;20027;-91
2022/10/19 02:09:50;;;;;;;10.52;3.22;;;;;;;12.25;100.00;100775.06;5026605;28;20033;-93
2022/10/19 02:12:20;;;;;;;14.65;3.65;;;;;;;12.30;100.00;100766.66;5052284;28;20036;-91
2022/10/19 02:14:53;;;;;;;17.58;3.38;;;;;;;12.28;100.00;100763.31;5026019;28;20043;-93
2022/10/19 02:17:31;;;;;;;16.98;3.58;;;;;;;12.31;100.00;100759.56;5039051;28;20040;-94
2022/10/19 02:20:01;;;;;;;14.88;3.53;;;;;;;12.35;100.00;100755.59;5023512;28;20426;-93
2022/10/19 02:22:29;;;;;;;15.85;3.70;;;;;;;12.36;100.00;100752.81;5041965;28;20372;-93
2022/10/19 02:24:58;;;;;;;13.50;3.80;;;;;;;12.38;100.00;100745.56;5015612;28;20116;-93
2022/10/19 02:27:27;;;;;;;13.30;3.80;;;;;;;12.38;100.00;100740.25;5037473;28;20037;-92
2022/10/19 02:29:55;;;;;;;15.57;4.90;;;;;;;12.46;100.00;100739.50;5043703;28;20037;-94
2022/10/19 02:32:23;;;;;;;12.43;3.60;;;;;;;12.47;100.00;100735.03;5032060;28;20033;-94
2022/10/19 02:34:59;;;;;;;11.90;3.50;;;;;;;12.43;100.00;100712.44;5026187;28;20033;-94
2022/10/19 02:37:27;;;;;;;16.55;3.72;;;;;;;12.46;100.00;100728.06;5061679;28;20024;-95
2022/10/19 02:39:56;;;;;;;17.52;5.00;;;;;;;12.44;100.00;100714.13;5031613;28;20067;-92
2022/10/19 02:43:09;;;;;;;12.35;4.18;;;;;;;12.50;100.00;100709.03;5058133;28;20477;-95
2022/10/19 02:46:14;;;;;;;16.05;3.92;;;;;;;12.51;100.00;100699.28;5052759;28;20098;-94
2022/10/19 02:48:44;;;;;;;11.38;3.38;;;;;;;12.49;100.00;100696.78;5036960;28;20025;-93
2022/10/19 02:51:34;;;;;;;12.82;3.58;;;;;;;12.51;100.00;100683.38;5046423;28;20036;-93
2022/10/19 02:54:09;;;;;;;10.73;3.53;;;;;;;12.47;100.00;100676.72;5046083;28;20075;-93
2022/10/19 02:56:43;;;;;;;12.73;3.60;;;;;;;12.51;100.00;100678.06;5023900;28;20033;-96
2022/10/19 02:59:15;;;;;;;12.23;3.33;;;;;;;12.44;100.00;100683.13;5031497;28;20482;-94
2022/10/19 03:01:43;;;;;;;12.90;3.25;;;;;;;12.44;100.00;100675.19;5049357;28;20484;-95
2022/10/19 03:04:19;;;;;;;17.35;3.55;;;;;;;12.47;100.00;100671.41;5035144;28;20040;-93
2022/10/19 03:06:47;;;;;;;10.63;3.10;;;;;;;12.47;100.00;100685.50;5027466;28;20055;-93
2022/10/19 03:09:16;;;;;;;16.35;3.53;;;;;;;12.48;100.00;100667.78;5037853;28;20060;-93
2022/10/19 03:11:45;;;;;;;16.92;3.28;;;;;;;12.51;100.00;100673.63;5036966;28;20491;-94
2022/10/19 03:14:15;;;;;;;9.82;3.05;;;;;;;12.49;100.00;100667.63;5017447;28;20028;-92
2022/10/19 03:16:45;;;;;;;15.80;3.63;;;;;;;12.52;100.00;100658.53;5025309;28;20120;-91
2022/10/19 03:19:15;;;;;;;10.85;3.28;;;;;;;12.45;100.00;100653.00;5030212;28;20040;-96
2022/10/19 03:21:48;;;;;;;13.20;2.95;;;;;;;12.48;100.00;100646.56;5028124;28;20123;-95
2022/10/19 03:24:26;;;;;;;18.42;3.70;;;;;;;12.53;100.00;100652.25;5027965;28;20048;-92
2022/10/19 03:26:54;;;;;;;12.10;3.53;;;;;;;12.55;100.00;100641.50;5025104;28;20016;-92
2022/10/19 03:29:24;;;;;;;14.25;2.97;;;;;;;12.55;100.00;100646.78;5026562;28;20477;-93
2022/10/19 03:31:54;;;;;;;10.70;3.42;;;;;;;12.53;100.00;100660.19;5031634;28;20052;-92
2022/10/19 03:34:22;;;;;;;16.65;3.58;;;;;;;12.55;100.00;100654.75;5063053;28;20123;-94
2022/10/19 03:37:02;;;;;;;11.02;3.35;;;;;;;12.58;100.00;100652.59;5045888;28;20047;-93
2022/10/19 03:39:33;;;;;;;18.70;3.67;;;;;;;12.58;100.00;100652.59;5060287;28;20028;-92
2022/10/19 03:42:02;;;;;;;10.93;3.53;;;;;;;12.61;100.00;100652.31;5028156;28;20070;-90
2022/10/19 03:44:29;;;;;;;13.50;3.17;;;;;;;12.59;100.00;100637.53;5043826;28;20115;-91
2022/10/19 03:46:58;;;;;;;13.85;2.95;;;;;;;12.62;100.00;100630.13;5056174;28;20092;-91
2022/10/19 03:49:26;;;;;;;10.43;2.78;;;;;;;12.56;100.00;100633.38;5043700;28;20040;-92
2022/10/19 03:51:55;;;;;;;12.27;3.15;;;;;;;12.59;100.00;100629.59;5045306;28;20048;-93
2022/10/19 03:54:23;;;;;;;12.32;3.45;;;;;;;12.52;100.00;100627.53;5043660;28;20031;-93
2022/10/19 03:56:52;;;;;;;17.83;3.70;;;;;;;12.55;100.00;100622.94;5028259;28;20024;-92
2022/10/19 03:59:20;;;;;;;9.68;3.08;;;;;;;12.53;100.00;100633.69;5039465;28;20119;-93
2022/10/19 04:01:50;;;;;;;13.35;2.78;;;;;;;12.52;100.00;100618.75;5033382;28;20115;-95
2022/10/19 04:04:22;;;;;;;13.02;3.30;;;;;;;12.55;100.00;100613.13;5028476;28;20480;-93
2022/10/19 04:06:52;;;;;;;11.15;3.20;;;;;;;12.49;100.00;100601.34;5025882;28;20025;-92
2022/10/19 04:09:25;;;;;;;12.57;3.03;;;;;;;12.52;100.00;100608.97;5033770;28;20040;-94
2022/10/19 04:11:54;;;;;;;13.55;3.20;;;;;;;12.49;100.00;100604.00;5021215;28;20040;-94
2022/10/19 04:14:24;;;;;;;13.77;3.67;;;;;;;12.53;100.00;100631.84;5030293;28;20024;-95
2022/10/19 04:16:52;;;;;;;9.68;2.75;;;;;;;12.51;100.00;100627.69;5015170;28;20036;-93
2022/10/19 04:19:21;;;;;;;10.82;2.75;;;;;;;12.43;100.00;100611.72;5038524;28;20103;-95
2022/10/19 04:21:50;;;;;;;5.55;2.38;;;;;;;12.44;100.00;100608.91;5030176;28;20056;-91
2022/10/19 04:24:18;;;;;;;9.23;2.58;;;;;;;12.39;100.00;100601.41;5011216;28;20108;-93
2022/10/19 04:26:49;;;;;;;10.02;2.75;;;;;;;12.39;100.00;100613.84;5004471;28;20033;-94
2022/10/19 04:29:21;;;;;;;9.25;2.97;;;;;;;12.33;100.00;100611.78;5002559;28;20078;-92
2022/10/19 04:31:53;;;;;;;6.72;2.03;;;;;;;12.27;100.00;100611.44;5037601;28;20552;-92
2022/10/19 04:34:24;;;;;;;8.02;2.67;;;;;;;12.23;100.00;100602.09;5005203;28;20068;-89
2022/10/19 04:36:53;;;;;;;6.82;2.38;;;;;;;12.17;100.00;100604.53;5005641;28;20469;-94
2022/10/19 04:39:22;;;;;;;8.63;2.88;;;;;;;12.14;100.00;100605.66;5022742;28;20163;-92
2022/10/19 04:41:50;;;;;;;7.38;2.05;;;;;;;12.13;100.00;100598.69;5005552;28;20108;-94
2022/10/19 04:44:18;;;;;;;8.93;2.35;;;;;;;12.13;100.00;100598.69;5023845;28;20025;-93
2022/10/19 04:46:47;;;;;;;6.07;2.40;;;;;;;12.09;100.00;100594.69;5008819;28;20040;-94
2022/10/19 04:49:16;;;;;;;8.23;2.40;;;;;;;12.10;100.00;100602.50;5004017;28;20043;-92
2022/10/19 04:51:44;;;;;;;9.15;2.13;;;;;;;12.12;100.00;100607.66;5002144;28;20110;-89
2022/10/19 04:54:13;;;;;;;7.90;2.67;;;;;;;12.11;100.00;100598.84;5022540;28;20485;-90
2022/10/19 04:56:42;;;;;;;3.15;1.50;;;;;;;12.10;100.00;100607.78;5005446;28;20120;-91
2022/10/19 04:59:10;;;;;;;4.65;1.92;;;;;;;12.11;100.00;100598.00;5032700;28;20029;-90
2022/10/19 05:01:40;;;;;;;6.97;1.67;;;;;;;12.06;100.00;100590.47;5010687;28;20068;-92
2022/10/19 05:04:10;;;;;;;3.90;1.50;;;;;;;12.05;100.00;100596.78;5009749;28;20021;-92
2022/10/19 05:06:39;;;;;;;4.70;1.27;;;;;;;12.08;100.00;100603.59;5019461;28;20037;-91
2022/10/19 05:09:06;;;;;;;5.13;1.63;;;;;;;12.07;100.00;100599.28;5005726;28;20360;-92
2022/10/19 05:11:34;;;;;;;6.75;1.83;;;;;;;12.07;100.00;100594.78;5041758;28;20122;-92
2022/10/19 05:14:02;;;;;;;3.50;1.50;;;;;;;12.12;100.00;100607.66;5040473;28;20025;-91
2022/10/19 05:16:31;;;;;;;3.97;1.40;;;;;;;12.09;100.00;100598.16;5024904;28;20115;-91
2022/10/19 05:18:58;;;;;;;3.22;1.60;;;;;;;12.12;100.00;100610.28;5018820;28;20077;-90
2022/10/19 05:21:28;;;;;;;4.60;1.85;;;;;;;12.07;100.00;100609.88;5039726;28;20036;-91
2022/10/19 05:23:56;;;;;;;1.65;1.55;;;;;;;12.08;100.00;100614.22;5035005;28;20036;-90
2022/10/19 05:26:28;;;;;;;5.90;1.90;;;;;;;12.07;100.00;100621.28;5036110;28;20075;-89
2022/10/19 05:29:00;;;;;;;5.25;2.13;;;;;;;12.07;100.00;100621.28;5043899;28;20086;-90
2022/10/19 05:31:31;;;;;;;4.95;1.67;;;;;;;12.09;100.00;100616.72;5036946;28;20033;-93
2022/10/19 05:33:59;;;;;;;6.80;1.75;;;;;;;12.10;100.00;100630.81;5039552;28;20040;-92
2022/10/19 05:36:35;;;;;;;5.60;2.35;;;;;;;12.13;100.00;100626.03;5052476;28;20028;-92
2022/10/19 05:39:14;;;;;;;7.47;2.05;;;;;;;12.09;100.00;100618.53;5037948;28;20476;-94
2022/10/19 05:41:45;;;;;;;11.68;2.33;;;;;;;12.09;100.00;100607.94;5055299;28;20035;-91
2022/10/19 05:44:21;;;;;;;3.70;2.00;;;;;;;12.12;100.00;100605.00;5016407;28;20179;-92
2022/10/19 05:46:51;;;;;;;4.80;1.80;;;;;;;12.11;100.00;100600.66;5032630;28;20039;-94
2022/10/19 05:49:20;;;;;;;6.93;1.95;;;;;;;12.09;100.00;100598.16;5026847;28;20036;-90
2022/10/19 05:51:49;;;;;;;7.15;2.15;;;;;;;12.10;100.00;100591.91;5038353;28;20062;-94
2022/10/19 05:54:18;;;;;;;7.55;2.17;;;;;;;12.07;100.00;100597.44;5062246;28;20025;-92
2022/10/19 05:56:47;;;;;;;5.47;1.88;;;;;;;12.05;100.00;100610.03;5029039;28;20126;-92
2022/10/19 05:59:20;;;;;;;6.35;1.75;;;;;;;12.10;100.00;100604.31;5044620;28;20132;-93
2022/10/19 06:01:49;;;;;;;7.28;2.40;;;;;;;12.09;100.00;100600.00;5028769;28;20036;-93
2022/10/19 06:04:17;;;;;;;6.10;2.08;;;;;;;12.13;100.00;100593.41;5037497;28;20481;-94
2022/10/19 06:06:46;;;;;;;6.32;2.42;;;;;;;12.15;100.00;100597.56;5051506;28;20060;-90
2022/10/19 06:09:13;;;;;;;6.35;2.28;;;;;;;12.16;100.00;100598.41;5020339;28;20035;-92
2022/10/19 06:11:43;;;;;;;6.70;2.80;;;;;;;12.19;100.00;100606.03;5048432;28;20048;-90
2022/10/19 06:14:14;;;;;;;7.15;2.33;;;;;;;12.19;100.00;100605.19;5032278;28;20032;-91
2022/10/19 06:16:44;;;;;;;9.30;2.22;;;;;;;12.22;100.00;100610.19;5022183;28;20041;-92
2022/10/19 06:19:12;;;;;;;5.10;2.20;;;;;;;12.24;100.00;100606.44;5038617;28;20024;-91
2022/10/19 06:21:40;;;;;;;6.35;1.73;;;;;;;12.23;100.00;100596.78;5019547;28;20036;-91
2022/10/19 06:24:09;;;;;;;7.50;1.95;;;;;;;12.26;100.00;100598.34;5019549;28;20437;-91
2022/10/19 06:26:37;;;;;;;7.22;2.15;;;;;;;12.22;100.00;100589.84;5016535;28;20050;-92
2022/10/19 06:29:05;;;;;;;8.55;2.30;;;;;;;12.27;100.00;100595.53;5030288;28;20054;-93
2022/10/19 06:31:36;;;;;;;4.93;1.88;;;;;;;12.27;100.00;100597.34;5019124;28;20029;-93
2022/10/19 06:34:06;;;;;;;3.80;1.75;;;;;;;12.27;100.00;100581.44;5023441;28;20032;-94
2022/10/19 06:36:38;;;;;;;4.75;1.83;;;;;;;12.26;100.00;100590.38;5043897;28;20024;-94
2022/10/19 06:39:09;;;;;;;4.35;1.80;;;;;;;12.25;100.00;100597.50;5025631;28;20032;-91
2022/10/19 06:41:39;;;;;;;4.05;1.67;;;;;;;12.21;100.00;100582.88;5044328;28;20037;-91
2022/10/19 06:44:19;;;;;;;4.65;1.67;;;;;;;12.16;100.00;100571.91;5045032;28;20023;-92
2022/10/19 06:46:47;;;;;;;3.65;1.58;;;;;;;12.20;100.00;100580.38;5053097;28;20029;-90
2022/10/19 06:49:14;;;;;;;9.18;1.45;;;;;;;12.20;100.00;100580.38;5029786;28;20029;-92
2022/10/19 06:51:42;;;;;;;3.13;1.50;;;;;;;12.20;100.00;100565.31;5028749;28;20206;-93
2022/10/19 06:54:10;;;;;;;9.20;1.40;;;;;;;12.21;100.00;100563.50;5034286;28;20040;-90
2022/10/19 06:56:39;;;;;;;7.30;1.63;;;;;;;12.24;100.00;100560.53;5046845;28;20101;-90
2022/10/19 06:59:07;;;;;;;3.63;1.20;;;;;;;12.19;100.00;100545.09;5041982;28;20021;-94
2022/10/19 07:01:35;;;;;;;4.50;1.83;;;;;;;12.23;100.00;100556.22;5029301;28;20031;-92
2022/10/19 07:04:03;;;;;;;3.92;1.30;;;;;;;12.22;100.00;100555.41;5041496;28;20539;-92
2022/10/19 07:06:30;;;;;;;5.35;2.00;;;;;;;12.26;100.00;100563.88;5028941;28;21432;-91
2022/10/19 07:08:58;;;;;;;9.88;1.15;;;;;;;12.24;100.00;100571.97;5026588;28;20028;-91
2022/10/19 07:11:28;;;;;;;5.13;1.30;;;;;;;12.28;100.00;100570.69;5031725;28;20128;-90
2022/10/19 07:13:58;;;;;;;2.78;1.42;;;;;;;12.32;100.00;100570.38;5035043;28;20035;-92
2022/10/19 07:16:28;;;;;;;3.15;1.25;;;;;;;12.31;100.00;100563.41;5024578;28;20136;-93
2022/10/19 07:18:59;;;;;;;3.15;1.17;;;;;;;12.27;100.00;100561.06;5028162;28;20102;-94
2022/10/19 07:21:39;;;;;;;3.45;1.23;;;;;;;12.31;100.00;100571.38;5027188;28;20372;-92
2022/10/19 07:24:08;;;;;;;3.13;1.13;;;;;;;12.29;100.00;100568.88;5023389;28;20456;-90
2022/10/19 07:26:37;;;;;;;2.10;1.30;;;;;;;12.33;100.00;100562.28;5022051;28;20048;-91
2022/10/19 07:29:07;;;;;;;3.17;1.25;;;;;;;12.31;100.00;100556.28;5026342;28;20039;-93
2022/10/19 07:31:37;;;;;;;5.80;1.65;;;;;;;12.32;100.00;100544.72;5044297;28;20066;-94
2022/10/19 07:34:07;;;;;;;7.13;1.83;;;;;;;12.30;100.00;100540.53;5018342;28;20037;-92
2022/10/19 07:36:36;;;;;;;5.93;1.95;;;;;;;12.29;100.00;100534.41;5043019;28;20020;-93
2022/10/19 07:39:09;;;;;;;6.35;2.00;;;;;;;12.29;100.00;100529.13;5029498;28;20025;-90
2022/10/19 07:41:38;;;;;;;4.50;2.13;;;;;;;12.30;100.00;100527.28;5037796;28;20028;-91
2022/10/19 07:44:06;;;;;;;7.10;2.35;;;;;;;12.26;100.00;100524.94;5026909;28;20028;-94
2022/10/19 07:46:36;;;;;;;4.47;2.10;;;;;;;12.28;100.00;100516.84;5024536;28;20043;-91
2022/10/19 07:49:11;;;;;;;8.05;2.67;;;;;;;12.25;100.00;100504.72;5041610;28;20080;-92
2022/10/19 07:51:39;;;;;;;6.22;2.28;;;;;;;12.29;100.00;100492.00;5032685;28;20123;-93
2022/10/19 07:54:08;;;;;;;8.52;2.55;;;;;;;12.24;100.00;100470.44;5035433;28;20028;-95
2022/10/19 07:56:37;;;;;;;9.55;2.10;;;;;;;12.19;100.00;100446.22;5039759;28;20465;-94
2022/10/19 07:59:18;;;;;;;8.75;2.58;;;;;;;12.20;100.00;100448.72;5017043;28;20048;-91
2022/10/19 08:01:51;;;;;;;5.28;2.13;;;;;;;12.21;100.00;100431.00;5036875;28;20032;-92
2022/10/19 08:04:19;;;;;;;7.40;2.33;;;;;;;12.18;100.00;100416.25;5067310;28;20473;-95
2022/10/19 08:06:48;;;;;;;6.55;1.70;;;;;;;12.19;100.00;100394.06;5026318;28;20041;-93
2022/10/19 08:09:16;;;;;;;8.20;1.73;;;;;;;12.15;100.00;100398.03;5027004;28;20029;-94
2022/10/19 08:11:46;;;;;;;5.93;1.73;;;;;;;12.17;100.00;100406.63;4998077;28;20122;-93
2022/10/19 08:14:16;;;;;;;7.78;1.67;;;;;;;12.21;100.00;100423.06;5056553;28;20194;-92
2022/10/19 08:16:46;;;;;;;4.97;2.45;;;;;;;12.22;100.00;100425.53;5013662;28;20044;-92
2022/10/19 08:19:16;;;;;;;4.82;1.83;;;;;;;12.26;100.00;100432.19;5033886;28;20056;-93
2022/10/19 08:21:45;;;;;;;5.45;1.95;;;;;;;12.31;100.00;100431.72;5040705;28;20483;-92
2022/10/19 08:24:15;;;;;;;7.32;1.90;;;;;;;12.29;100.00;100431.06;5039162;28;20175;-93
2022/10/19 08:26:45;;;;;;;6.97;2.28;;;;;;;12.28;100.00;100421.44;5013356;28;20032;-93
2022/10/19 08:29:16;;;;;;;7.10;2.00;;;;;;;12.32;100.00;100427.25;5046410;28;20033;-93
2022/10/19 08:31:47;;;;;;;4.43;2.22;;;;;;;12.31;100.00;100420.31;5004312;28;20536;-91
2022/10/19 08:34:17;;;;;;;10.85;2.00;;;;;;;12.31;100.00;100449.47;5033248;28;20492;-93
2022/10/19 08:36:47;;;;;;;5.93;1.80;;;;;;;12.30;100.00;100448.63;5021529;28;20075;-94
2022/10/19 08:39:17;;;;;;;5.32;1.65;;;;;;;12.29;100.00;100441.66;5037639;28;20029;-92
2022/10/19 08:42:23;;;;;;;9.10;2.38;;;;;;;12.31;100.00;100436.19;5037168;28;20063;-92
2022/10/19 08:45:01;;;;;;;4.32;2.17;;;;;;;12.36;100.00;100450.63;4995012;28;20038;-92
2022/10/19 08:48:12;;;;;;;5.28;1.75;;;;;;;12.38;100.00;100461.94;5020062;28;20541;-93
2022/10/19 08:50:45;;;;;;;5.88;1.58;;;;;;;12.39;100.00;100468.06;5012334;28;20425;-92
2022/10/19 08:53:22;;;;;;;6.93;1.63;;;;;;;12.46;100.00;100479.69;5034686;28;20033;-92
2022/10/19 08:56:01;;;;;;;7.97;1.90;;;;;;;12.45;100.00;100488.66;5035830;28;20037;-92
2022/10/19 08:58:46;;;;;;;5.97;1.67;;;;;;;12.49;100.00;100487.34;5033157;28;20049;-93
2022/10/19 09:01:42;;;;;;;7.05;1.67;;;;;;;12.49;100.00;100475.91;5010045;28;20032;-93
2022/10/19 09:04:26;;;;;;;5.30;1.58;;;;;;;12.52;100.00;100470.28;5020383;28;20033;-92
2022/10/19 09:07:17;;;;;;;7.40;1.42;;;;;;;12.54;100.00;100468.31;5035601;28;20076;-92
2022/10/19 09:09:51;;;;;;;7.45;1.10;;;;;;;12.51;100.00;100460.66;5034141;28;20047;-93
2022/10/19 09:12:37;;;;;;;5.10;1.33;;;;;;;12.57;100.00;100459.19;5046003;28;20052;-94
2022/10/19 09:15:11;;;;;;;;;;;;;;;12.45;100.00;100446.22;5016813;28;20064;-94
2022/10/19 09:17:41;;;;;;;4.47;1.77;;;;;;;12.49;100.00;100442.28;5018102;28;19912;-94
2022/10/19 09:20:20;;;;;;;5.10;1.45;;;;;;;12.55;100.00;100445.28;5022622;28;20043;-93
2022/10/19 09:23:20;;;;;;;5.97;1.58;;;;;;;12.52;100.00;100446.41;5029858;28;20092;-94
2022/10/19 09:25:56;;;;;;;5.93;1.20;;;;;;;12.41;100.00;100434.25;5018757;28;20036;-92
2022/10/19 09:29:07;;;;;;;4.03;1.20;;;;;;;12.46;100.00;100449.69;5040030;28;20033;-92
2022/10/19 09:31:42;;;;;;;4.55;0.90;;;;;;;12.44;100.00;100446.38;5008269;28;20040;-94
2022/10/19 09:34:21;;;;;;;6.15;1.55;;;;;;;12.42;100.00;100443.91;5023512;28;20425;-93
2022/10/19 09:36:55;;;;;;;3.30;1.20;;;;;;;12.43;100.00;100444.72;5021299;28;20042;-93
2022/10/19 09:39:27;;;;;;;8.67;1.37;;;;;;;12.43;100.00;100445.56;5036546;28;20024;-90
2022/10/19 09:42:31;;;;;;;3.53;1.40;;;;;;;12.38;100.00;100429.28;5026026;28;20060;-94
2022/10/19 09:45:34;;;;;;;3.47;1.15;;;;;;;12.35;100.00;100430.44;5052205;28;20036;-93
2022/10/19 09:48:30;;;;;;;;;;;;;;;12.27;100.00;100425.91;5057729;28;20040;-94
2022/10/19 09:51:03;;;;;;;4.18;1.17;;;;;;;12.36;100.00;100418.84;5022681;28;19909;-96
2022/10/19 09:53:37;;;;;;;7.15;2.28;;;;;;;12.38;100.00;100439.88;5026899;28;20025;-92
2022/10/19 09:56:20;;;;;;;7.18;1.70;;;;;;;12.36;100.00;100437.38;5035146;28;20040;-94
2022/10/19 09:58:56;;;;;;;4.25;1.45;;;;;;;12.44;100.00;100436.59;5056143;28;20047;-91
2022/10/19 10:01:37;;;;;;;6.55;1.70;;;;;;;12.47;100.00;100444.25;5021844;28;20139;-93
2022/10/19 10:04:30;;;;;;;5.90;2.08;;;;;;;12.50;100.00;100451.88;5036263;28;20131;-92
2022/10/19 10:07:15;;;;;;;1.77;1.05;;;;;;;12.52;100.00;100454.38;5036435;28;20036;-92
2022/10/19 10:09:44;;;;;;;2.75;1.33;;;;;;;12.49;100.00;100444.91;5034237;28;20043;-92
2022/10/19 10:12:17;;;;;;;7.85;1.30;;;;;;;12.53;100.00;100450.75;5031069;28;20099;-93
2022/10/19 10:14:45;;;;;;;6.47;1.45;;;;;;;12.56;100.00;100457.53;5022375;28;20036;-93
2022/10/19 10:17:24;;;;;;;6.78;1.50;;;;;;;12.54;100.00;100449.75;5023066;28;20025;-92
2022/10/19 10:19:59;;;;;;;3.90;1.23;;;;;;;12.60;100.00;100454.41;5027649;28;20078;-92
2022/10/19 10:22:35;;;;;;;3.65;1.25;;;;;;;12.56;100.00;100454.91;5050720;28;20056;-92
2022/10/19 10:25:20;;;;;;;4.72;1.02;;;;;;;12.59;100.00;100454.59;5043720;28;20027;-91
2022/10/19 10:28:28;;;;;;;4.25;1.02;;;;;;;12.62;100.00;100449.81;5025828;28;20051;-92
2022/10/19 10:31:09;;;;;;;5.32;1.00;;;;;;;12.62;100.00;100441.84;5025773;28;20043;-92
2022/10/19 10:33:40;;;;;;;4.32;1.02;;;;;;;12.66;100.00;100442.38;5058675;28;20020;-93
2022/10/19 10:36:11;;;;;;;3.88;1.10;;;;;;;12.74;100.00;100449.53;5053085;28;20368;-92
2022/10/19 10:38:46;;;;;;;3.58;0.93;;;;;;;12.76;100.00;100443.06;5056262;28;20090;-93
2022/10/19 10:41:27;;;;;;;2.55;0.60;;;;;;;12.77;100.00;100428.81;5052762;28;20064;-95
2022/10/19 10:44:02;;;;;;;6.88;1.27;;;;;;;12.81;100.00;100428.50;5034819;28;20089;-92
2022/10/19 10:46:45;;;;;;;4.18;1.00;;;;;;;12.82;100.00;100419.56;5024423;28;20028;-94
2022/10/19 10:49:36;;;;;;;5.28;1.10;;;;;;;12.85;100.00;100422.69;5056578;28;20067;-94
2022/10/19 10:52:07;;;;;;;4.70;0.80;;;;;;;12.89;100.00;100409.97;5025596;28;20032;-93
2022/10/19 10:54:39;;;;;;;2.13;0.63;;;;;;;12.86;100.00;100407.63;5024353;28;20040;-94
2022/10/19 10:57:15;;;;;;;3.85;0.80;;;;;;;12.92;100.00;100392.88;5024357;28;20635;-93
2022/10/19 11:00:16;;;;;;;3.80;0.93;;;;;;;12.88;100.00;100381.78;5024097;28;20039;-93
2022/10/19 11:03:07;;;;;;;2.17;0.40;;;;;;;12.96;100.00;100384.47;5026707;28;20104;-94
2022/10/19 11:05:38;;;;;;;;;;;;;;;12.88;100.00;100382.59;5040288;28;20045;-91
2022/10/19 11:08:49;;;;;;;4.68;0.90;;;;;;;12.95;100.00;100380.13;5038589;28;19908;-92
2022/10/19 11:11:26;;;;;;;3.85;0.65;;;;;;;12.99;100.00;100368.22;5023862;28;20041;-93
2022/10/19 11:14:28;;;;;;;4.32;0.70;;;;;;;13.00;100.00;100351.31;5040903;28;20535;-95
2022/10/19 11:17:07;;;;;;;2.50;0.70;;;;;;;13.01;100.00;100352.94;5032604;28;20072;-92
2022/10/19 11:19:43;;;;;;;2.80;0.60;;;;;;;13.05;100.00;100334.06;5011581;28;20045;-94
2022/10/19 11:22:24;;;;;;;5.32;0.80;;;;;;;13.05;100.00;100326.94;5011191;28;20028;-94
2022/10/19 11:25:18;;;;;;;1.48;0.50;;;;;;;13.03;100.00;100323.59;5008643;28;20033;-93
2022/10/19 11:28:10;;;;;;;1.58;0.43;;;;;;;13.05;100.00;100324.28;5021277;28;20040;-93
2022/10/19 11:31:10;;;;;;;1.98;0.50;;;;;;;13.08;100.00;100318.63;5019561;28;20021;-94
2022/10/19 11:34:28;;;;;;;3.40;0.65;;;;;;;13.06;100.00;100312.66;5027049;28;20033;-94
2022/10/19 11:37:16;;;;;;;2.63;0.50;;;;;;;13.03;100.00;100303.22;4984657;28;20083;-95
2022/10/19 11:40:22;;;;;;;1.60;0.50;;;;;;;12.96;100.00;100302.22;5004028;28;20049;-92
2022/10/19 11:43:09;;;;;;;1.83;0.60;;;;;;;13.05;100.00;100296.91;5005498;28;20048;-95
2022/10/19 11:45:55;;;;;;;;;;;;;;;12.96;100.00;100293.44;5000809;28;20042;-93
2022/10/19 11:48:49;;;;;;;2.28;0.40;;;;;;;12.98;100.00;100296.75;5002921;28;19908;-93
2022/10/19 11:51:34;;;;;;;0.82;0.35;;;;;;;12.98;100.00;100297.56;5021287;28;20059;-93
2022/10/19 11:54:41;;;;;;;0.70;0.40;;;;;;;12.96;100.00;100294.25;5030499;28;20151;-95
2022/10/19 11:57:29;;;;;;;6.35;0.95;;;;;;;13.02;100.00;100288.31;4977273;28;20039;-93